sensor_id;sensor_type;location;lat;lon;timestamp;P1;durP1;ratioP1;P2;durP2;ratioP2
21448;SDS011;10885;52.830;13.788;2023-01-05T06:12:57;2.95;;;1.17;;
21448;SDS011;10885;52.830;13.788;2023-01-05T06:18:17;2.30;;;1.17;;
21448;SDS011;10885;52.830;13.788;2023-01-05T06:23:38;3.67;;;1.10;;
21448;SDS011;10885;52.830;13.788;2023-01-05T06:34:21;3.60;;;0.80;;
21448;SDS011;10885;52.830;13.788;2023-01-05T06:39:43;1.10;;;0.73;;
21448;SDS011;10885;52.830;13.788;2023-01-05T06:45:05;4.00;;;0.85;;
21448;SDS011;10885;52.830;13.788;2023-01-05T06:50:27;3.75;;;0.82;;
21448;SDS011;10885;52.830;13.788;2023-01-05T06:55:50;1.73;;;1.00;;
21448;SDS011;10885;52.830;13.788;2023-01-05T07:01:10;2.75;;;0.95;;
21448;SDS011;10885;52.830;13.788;2023-01-05T07:11:54;7.88;;;1.20;;
21448;SDS011;10885;52.830;13.788;2023-01-05T07:17:14;2.97;;;0.93;;
21448;SDS011;10885;52.830;13.788;2023-01-05T07:27:56;5.30;;;1.23;;
21448;SDS011;10885;52.830;13.788;2023-01-05T07:33:18;2.38;;;1.17;;
21448;SDS011;10885;52.830;13.788;2023-01-05T07:38:39;2.03;;;1.10;;
21448;SDS011;10885;52.830;13.788;2023-01-05T07:44:00;2.72;;;1.25;;
21448;SDS011;10885;52.830;13.788;2023-01-05T07:49:20;4.82;;;1.02;;
21448;SDS011;10885;52.830;13.788;2023-01-05T07:54:41;5.95;;;1.20;;
21448;SDS011;10885;52.830;13.788;2023-01-05T08:00:03;4.10;;;1.23;;
21448;SDS011;10885;52.830;13.788;2023-01-05T08:05:46;4.65;;;1.25;;
21448;SDS011;10885;52.830;13.788;2023-01-05T08:11:08;6.60;;;1.08;;
21448;SDS011;10885;52.830;13.788;2023-01-05T08:22:51;2.95;;;0.93;;
21448;SDS011;10885;52.830;13.788;2023-01-05T08:28:12;3.75;;;1.17;;
21448;SDS011;10885;52.830;13.788;2023-01-05T08:33:33;2.80;;;0.90;;
21448;SDS011;10885;52.830;13.788;2023-01-05T08:44:15;3.00;;;1.23;;
21448;SDS011;10885;52.830;13.788;2023-01-05T08:49:36;1.85;;;0.80;;
21448;SDS011;10885;52.830;13.788;2023-01-05T08:54:57;2.92;;;0.75;;
21448;SDS011;10885;52.830;13.788;2023-01-05T09:00:17;5.63;;;1.20;;
21448;SDS011;10885;52.830;13.788;2023-01-05T09:05:41;5.53;;;1.38;;
21448;SDS011;10885;52.830;13.788;2023-01-05T09:11:21;5.53;;;1.10;;
21448;SDS011;10885;52.830;13.788;2023-01-05T09:16:44;6.13;;;0.95;;
21448;SDS011;10885;52.830;13.788;2023-01-05T09:22:25;6.57;;;1.20;;
21448;SDS011;10885;52.830;13.788;2023-01-05T09:27:46;2.60;;;0.88;;
21448;SDS011;10885;52.830;13.788;2023-01-05T09:38:28;3.67;;;1.10;;
21448;SDS011;10885;52.830;13.788;2023-01-05T09:43:51;6.22;;;1.35;;
21448;SDS011;10885;52.830;13.788;2023-01-05T09:49:16;3.13;;;0.93;;
21448;SDS011;10885;52.830;13.788;2023-01-05T09:54:40;6.82;;;1.30;;
21448;SDS011;10885;52.830;13.788;2023-01-05T10:05:45;6.00;;;1.13;;
21448;SDS011;10885;52.830;13.788;2023-01-05T10:11:10;2.80;;;1.10;;
21448;SDS011;10885;52.830;13.788;2023-01-05T10:16:56;4.95;;;1.00;;
21448;SDS011;10885;52.830;13.788;2023-01-05T10:34:31;5.60;;;1.30;;
21448;SDS011;10885;52.830;13.788;2023-01-05T10:45:35;4.20;;;1.02;;
21448;SDS011;10885;52.830;13.788;2023-01-05T10:51:05;9.25;;;1.50;;
21448;SDS011;10885;52.830;13.788;2023-01-05T10:56:27;6.57;;;1.35;;
21448;SDS011;10885;52.830;13.788;2023-01-05T11:01:50;5.50;;;1.00;;
21448;SDS011;10885;52.830;13.788;2023-01-05T11:07:11;9.60;;;1.67;;
21448;SDS011;10885;52.830;13.788;2023-01-05T11:12:32;5.07;;;1.70;;
21448;SDS011;10885;52.830;13.788;2023-01-05T11:17:54;9.93;;;1.40;;
21448;SDS011;10885;52.830;13.788;2023-01-05T11:23:28;4.05;;;1.13;;
21448;SDS011;10885;52.830;13.788;2023-01-05T11:39:57;8.82;;;1.52;;
21448;SDS011;10885;52.830;13.788;2023-01-05T11:45:21;10.52;;;2.28;;
21448;SDS011;10885;52.830;13.788;2023-01-05T11:50:45;4.45;;;1.35;;
21448;SDS011;10885;52.830;13.788;2023-01-05T11:56:21;2.55;;;0.90;;
21448;SDS011;10885;52.830;13.788;2023-01-05T12:01:53;3.72;;;0.88;;
21448;SDS011;10885;52.830;13.788;2023-01-05T12:07:37;6.38;;;0.98;;
21448;SDS011;10885;52.830;13.788;2023-01-05T12:13:05;2.83;;;1.10;;
21448;SDS011;10885;52.830;13.788;2023-01-05T12:19:06;3.40;;;1.00;;
21448;SDS011;10885;52.830;13.788;2023-01-05T12:36:19;0.75;;;0.47;;
21448;SDS011;10885;52.830;13.788;2023-01-05T12:42:04;0.88;;;0.60;;
21448;SDS011;10885;52.830;13.788;2023-01-05T12:58:48;1.45;;;0.52;;
21448;SDS011;10885;52.830;13.788;2023-01-05T13:04:34;2.95;;;0.70;;
21448;SDS011;10885;52.830;13.788;2023-01-05T13:10:22;1.08;;;0.75;;
21448;SDS011;10885;52.830;13.788;2023-01-05T13:21:24;1.23;;;0.55;;
21448;SDS011;10885;52.830;13.788;2023-01-05T13:26:48;2.17;;;0.98;;
21448;SDS011;10885;52.830;13.788;2023-01-05T13:37:53;0.80;;;0.68;;
21448;SDS011;10885;52.830;13.788;2023-01-05T13:49:02;1.83;;;0.60;;
21448;SDS011;10885;52.830;13.788;2023-01-05T13:54:46;1.42;;;0.90;;
21448;SDS011;10885;52.830;13.788;2023-01-05T14:00:24;2.47;;;0.88;;
21448;SDS011;10885;52.830;13.788;2023-01-05T14:05:53;2.38;;;0.88;;
21448;SDS011;10885;52.830;13.788;2023-01-05T14:11:27;2.83;;;0.85;;
21448;SDS011;10885;52.830;13.788;2023-01-05T14:16:49;4.57;;;1.15;;
21448;SDS011;10885;52.830;13.788;2023-01-05T14:28:14;3.28;;;1.20;;
21448;SDS011;10885;52.830;13.788;2023-01-05T14:33:45;1.17;;;0.80;;
21448;SDS011;10885;52.830;13.788;2023-01-05T14:44:42;2.72;;;0.80;;
21448;SDS011;10885;52.830;13.788;2023-01-05T14:50:23;3.22;;;1.00;;
21448;SDS011;10885;52.830;13.788;2023-01-05T15:18:17;4.20;;;1.42;;
21448;SDS011;10885;52.830;13.788;2023-01-05T15:35:34;4.50;;;1.10;;
21448;SDS011;10885;52.830;13.788;2023-01-05T15:41:05;4.03;;;1.23;;
21448;SDS011;10885;52.830;13.788;2023-01-05T15:46:31;4.10;;;0.85;;
21448;SDS011;10885;52.830;13.788;2023-01-05T15:51:53;6.32;;;1.25;;
21448;SDS011;10885;52.830;13.788;2023-01-05T15:57:19;3.15;;;1.30;;
21448;SDS011;10885;52.830;13.788;2023-01-05T16:02:41;6.70;;;1.30;;
21448;SDS011;10885;52.830;13.788;2023-01-05T16:08:02;7.95;;;1.58;;
21448;SDS011;10885;52.830;13.788;2023-01-05T16:13:33;4.05;;;1.25;;
21448;SDS011;10885;52.830;13.788;2023-01-05T16:18:56;1.95;;;1.13;;
21448;SDS011;10885;52.830;13.788;2023-01-05T16:24:23;3.20;;;1.20;;
21448;SDS011;10885;52.830;13.788;2023-01-05T16:29:50;4.00;;;1.10;;
21448;SDS011;10885;52.830;13.788;2023-01-05T16:41:03;4.28;;;1.50;;
21448;SDS011;10885;52.830;13.788;2023-01-05T16:46:32;2.67;;;1.17;;
21448;SDS011;10885;52.830;13.788;2023-01-05T16:51:56;3.00;;;1.08;;
21448;SDS011;10885;52.830;13.788;2023-01-05T17:03:02;2.72;;;1.27;;
21448;SDS011;10885;52.830;13.788;2023-01-05T17:08:42;3.73;;;1.30;;
21448;SDS011;10885;52.830;13.788;2023-01-05T17:19:26;4.63;;;1.23;;
21448;SDS011;10885;52.830;13.788;2023-01-05T17:24:47;2.75;;;1.30;;
21448;SDS011;10885;52.830;13.788;2023-01-05T17:30:17;1.98;;;1.13;;
21448;SDS011;10885;52.830;13.788;2023-01-05T17:35:41;3.22;;;1.30;;
21448;SDS011;10885;52.830;13.788;2023-01-05T17:41:03;8.38;;;2.15;;
21448;SDS011;10885;52.830;13.788;2023-01-05T17:46:26;2.78;;;1.30;;
21448;SDS011;10885;52.830;13.788;2023-01-05T17:51:50;6.60;;;1.60;;
21448;SDS011;10885;52.830;13.788;2023-01-05T18:02:32;6.22;;;1.50;;
21448;SDS011;10885;52.830;13.788;2023-01-05T18:07:53;3.65;;;1.15;;
21448;SDS011;10885;52.830;13.788;2023-01-05T18:13:14;6.40;;;1.40;;
21448;SDS011;10885;52.830;13.788;2023-01-05T18:23:56;6.50;;;1.80;;
21448;SDS011;10885;52.830;13.788;2023-01-05T18:34:37;3.10;;;1.33;;
21448;SDS011;10885;52.830;13.788;2023-01-05T18:45:19;4.57;;;1.17;;
21448;SDS011;10885;52.830;13.788;2023-01-05T18:50:51;3.95;;;1.23;;
21448;SDS011;10885;52.830;13.788;2023-01-05T18:56:13;4.30;;;1.30;;
21448;SDS011;10885;52.830;13.788;2023-01-05T19:01:34;5.15;;;1.45;;
21448;SDS011;10885;52.830;13.788;2023-01-05T19:07:00;5.15;;;2.03;;
21448;SDS011;10885;52.830;13.788;2023-01-05T19:12:20;5.95;;;1.67;;
21448;SDS011;10885;52.830;13.788;2023-01-05T19:17:41;7.00;;;1.85;;
21448;SDS011;10885;52.830;13.788;2023-01-05T19:23:02;9.05;;;2.03;;
21448;SDS011;10885;52.830;13.788;2023-01-05T19:28:23;9.23;;;1.85;;
21448;SDS011;10885;52.830;13.788;2023-01-05T19:33:44;4.95;;;1.50;;
21448;SDS011;10885;52.830;13.788;2023-01-05T19:39:15;6.63;;;1.60;;
21448;SDS011;10885;52.830;13.788;2023-01-05T19:44:38;3.33;;;1.17;;
21448;SDS011;10885;52.830;13.788;2023-01-05T19:55:20;2.80;;;1.15;;
21448;SDS011;10885;52.830;13.788;2023-01-05T20:11:49;7.68;;;1.85;;
21448;SDS011;10885;52.830;13.788;2023-01-05T20:17:14;8.27;;;1.48;;
21448;SDS011;10885;52.830;13.788;2023-01-05T20:27:56;5.07;;;1.55;;
21448;SDS011;10885;52.830;13.788;2023-01-05T20:33:17;4.47;;;1.50;;
21448;SDS011;10885;52.830;13.788;2023-01-05T20:38:37;3.35;;;1.65;;
21448;SDS011;10885;52.830;13.788;2023-01-05T20:43:59;6.05;;;1.70;;
21448;SDS011;10885;52.830;13.788;2023-01-05T20:49:21;12.27;;;3.08;;
21448;SDS011;10885;52.830;13.788;2023-01-05T20:54:42;6.80;;;1.52;;
21448;SDS011;10885;52.830;13.788;2023-01-05T21:00:04;2.55;;;1.33;;
21448;SDS011;10885;52.830;13.788;2023-01-05T21:05:25;3.40;;;1.45;;
21448;SDS011;10885;52.830;13.788;2023-01-05T21:10:50;4.88;;;1.30;;
21448;SDS011;10885;52.830;13.788;2023-01-05T21:16:16;2.95;;;1.48;;
21448;SDS011;10885;52.830;13.788;2023-01-05T21:21:40;4.70;;;1.55;;
21448;SDS011;10885;52.830;13.788;2023-01-05T21:27:00;7.13;;;1.50;;
21448;SDS011;10885;52.830;13.788;2023-01-05T21:32:21;8.80;;;1.98;;
21448;SDS011;10885;52.830;13.788;2023-01-05T21:37:42;4.07;;;1.83;;
21448;SDS011;10885;52.830;13.788;2023-01-05T21:43:03;6.15;;;1.60;;
21448;SDS011;10885;52.830;13.788;2023-01-05T21:48:24;3.88;;;1.60;;
21448;SDS011;10885;52.830;13.788;2023-01-05T21:53:46;3.88;;;1.67;;
21448;SDS011;10885;52.830;13.788;2023-01-05T21:59:27;4.70;;;1.40;;
21448;SDS011;10885;52.830;13.788;2023-01-05T22:04:48;3.85;;;1.70;;
21448;SDS011;10885;52.830;13.788;2023-01-05T22:10:09;3.38;;;1.42;;
21448;SDS011;10885;52.830;13.788;2023-01-05T22:15:31;7.20;;;1.58;;
21448;SDS011;10885;52.830;13.788;2023-01-05T22:21:01;4.78;;;1.80;;
21448;SDS011;10885;52.830;13.788;2023-01-05T22:26:24;5.80;;;2.10;;
21448;SDS011;10885;52.830;13.788;2023-01-05T22:31:45;12.30;;;2.90;;
21448;SDS011;10885;52.830;13.788;2023-01-05T22:37:06;7.00;;;2.20;;
21448;SDS011;10885;52.830;13.788;2023-01-05T22:42:28;4.55;;;1.98;;
